sensor_id;sensor_type;location;lat;lon;timestamp;pressure;altitude;pressure_sealevel;temperature;humidity
7754;BME280;3921;42.266;23.122;2023-04-05T00:00:20;94682.50;;;3.52;57.73
7754;BME280;3921;42.266;23.122;2023-04-05T00:02:47;95020.72;;;5.75;57.37
7754;BME280;3921;42.266;23.122;2023-04-05T00:05:15;94988.19;;;5.52;57.09
7754;BME280;3921;42.266;23.122;2023-04-05T00:08:02;94887.44;;;5.04;57.04
7754;BME280;3921;42.266;23.122;2023-04-05T00:10:34;95049.09;;;5.94;57.02
7754;BME280;3921;42.266;23.122;2023-04-05T00:13:02;95069.03;;;5.93;58.06
7754;BME280;3921;42.266;23.122;2023-04-05T00:15:29;95004.00;;;5.59;57.41
7754;BME280;3921;42.266;23.122;2023-04-05T00:17:56;95049.81;;;5.82;57.75
7754;BME280;3921;42.266;23.122;2023-04-05T00:20:24;95031.50;;;5.77;57.83
7754;BME280;3921;42.266;23.122;2023-04-05T00:22:51;94979.03;;;5.50;57.56
7754;BME280;3921;42.266;23.122;2023-04-05T00:25:18;94995.66;;;5.54;57.25
7754;BME280;3921;42.266;23.122;2023-04-05T00:27:47;95169.09;;;6.52;57.24
7754;BME280;3921;42.266;23.122;2023-04-05T00:30:14;95154.09;;;6.46;57.04
7754;BME280;3921;42.266;23.122;2023-04-05T00:32:46;95072.22;;;5.75;56.97
7754;BME280;3921;42.266;23.122;2023-04-05T00:35:13;95082.22;;;5.79;58.00
7754;BME280;3921;42.266;23.122;2023-04-05T00:37:40;95164.03;;;6.31;57.67
7754;BME280;3921;42.266;23.122;2023-04-05T00:40:08;94973.69;;;4.93;57.88
7754;BME280;3921;42.266;23.122;2023-04-05T00:42:35;95053.69;;;5.36;57.41
7754;BME280;3921;42.266;23.122;2023-04-05T00:45:05;94796.84;;;3.64;57.97
7754;BME280;3921;42.266;23.122;2023-04-05T00:47:32;94828.53;;;3.86;58.62
7754;BME280;3921;42.266;23.122;2023-04-05T00:49:59;95036.19;;;5.27;58.01
7754;BME280;3921;42.266;23.122;2023-04-05T00:52:27;94936.19;;;4.70;58.19
7754;BME280;3921;42.266;23.122;2023-04-05T00:54:55;94996.28;;;5.16;58.07
7754;BME280;3921;42.266;23.122;2023-04-05T00:57:23;95081.19;;;5.50;58.08
7754;BME280;3921;42.266;23.122;2023-04-05T00:59:50;95056.25;;;5.47;57.80
7754;BME280;3921;42.266;23.122;2023-04-05T01:02:24;95072.91;;;5.51;58.14
7754;BME280;3921;42.266;23.122;2023-04-05T01:04:59;94933.56;;;4.57;58.34
7754;BME280;3921;42.266;23.122;2023-04-05T01:07:37;95077.00;;;5.44;58.48
7754;BME280;3921;42.266;23.122;2023-04-05T01:10:08;95068.75;;;5.51;58.78
7754;BME280;3921;42.266;23.122;2023-04-05T01:12:36;95057.09;;;5.47;58.06
7754;BME280;3921;42.266;23.122;2023-04-05T01:15:10;95085.34;;;5.49;57.89
7754;BME280;3921;42.266;23.122;2023-04-05T01:17:39;95135.44;;;5.86;57.64
7754;BME280;3921;42.266;23.122;2023-04-05T01:20:10;95106.22;;;5.64;57.83
7754;BME280;3921;42.266;23.122;2023-04-05T01:23:06;95204.72;;;6.22;58.61
7754;BME280;3921;42.266;23.122;2023-04-05T01:26:01;95214.75;;;6.31;57.24
7754;BME280;3921;42.266;23.122;2023-04-05T01:29:01;95218.09;;;6.32;57.32
7754;BME280;3921;42.266;23.122;2023-04-05T01:31:41;95056.94;;;5.24;58.06
7754;BME280;3921;42.266;23.122;2023-04-05T01:34:22;95232.25;;;6.39;58.11
7754;BME280;3921;42.266;23.122;2023-04-05T01:36:55;95147.91;;;5.89;57.54
7754;BME280;3921;42.266;23.122;2023-04-05T01:39:23;95065.31;;;5.34;57.76
7754;BME280;3921;42.266;23.122;2023-04-05T01:41:51;94961.13;;;4.76;58.19
7754;BME280;3921;42.266;23.122;2023-04-05T01:44:18;94732.81;;;3.34;57.61
7754;BME280;3921;42.266;23.122;2023-04-05T01:46:46;94697.13;;;3.24;57.66
7754;BME280;3921;42.266;23.122;2023-04-05T01:49:18;95107.00;;;5.61;57.76
7754;BME280;3921;42.266;23.122;2023-04-05T01:51:45;95152.19;;;5.99;57.47
7754;BME280;3921;42.266;23.122;2023-04-05T01:54:13;95103.72;;;5.67;57.19
7754;BME280;3921;42.266;23.122;2023-04-05T01:56:40;95103.75;;;5.70;57.85
7754;BME280;3921;42.266;23.122;2023-04-05T01:59:07;95112.97;;;5.81;57.26
7754;BME280;3921;42.266;23.122;2023-04-05T02:01:35;95038.72;;;5.33;56.67
7754;BME280;3921;42.266;23.122;2023-04-05T02:04:03;94995.31;;;5.03;57.71
7754;BME280;3921;42.266;23.122;2023-04-05T02:06:30;95057.84;;;5.36;57.29
7754;BME280;3921;42.266;23.122;2023-04-05T02:08:57;94946.19;;;4.76;57.65
7754;BME280;3921;42.266;23.122;2023-04-05T02:11:27;95053.72;;;5.39;58.18
7754;BME280;3921;42.266;23.122;2023-04-05T02:13:54;95085.25;;;5.34;57.97
7754;BME280;3921;42.266;23.122;2023-04-05T02:16:21;95109.53;;;5.67;58.42
7754;BME280;3921;42.266;23.122;2023-04-05T02:18:50;94959.50;;;4.83;58.61
7754;BME280;3921;42.266;23.122;2023-04-05T02:21:18;95184.72;;;6.18;57.87
7754;BME280;3921;42.266;23.122;2023-04-05T02:23:46;94794.53;;;3.82;57.91
7754;BME280;3921;42.266;23.122;2023-04-05T02:26:13;94911.16;;;4.53;56.90
7754;BME280;3921;42.266;23.122;2023-04-05T02:28:40;94978.66;;;4.92;57.76
7754;BME280;3921;42.266;23.122;2023-04-05T02:31:08;95224.81;;;6.47;58.07
7754;BME280;3921;42.266;23.122;2023-04-05T02:33:36;95041.06;;;5.12;58.70
7754;BME280;3921;42.266;23.122;2023-04-05T02:36:04;94768.53;;;3.50;58.65
7754;BME280;3921;42.266;23.122;2023-04-05T02:38:33;95121.25;;;5.76;59.19
7754;BME280;3921;42.266;23.122;2023-04-05T02:41:00;95042.88;;;5.34;59.14
7754;BME280;3921;42.266;23.122;2023-04-05T02:43:28;95072.03;;;5.50;59.40
7754;BME280;3921;42.266;23.122;2023-04-05T02:45:56;95096.22;;;5.57;58.90
7754;BME280;3921;42.266;23.122;2023-04-05T02:48:23;95130.34;;;5.72;59.68
7754;BME280;3921;42.266;23.122;2023-04-05T02:50:50;94771.19;;;3.63;59.97
7754;BME280;3921;42.266;23.122;2023-04-05T02:53:20;94972.78;;;4.84;60.36
7754;BME280;3921;42.266;23.122;2023-04-05T02:55:52;95030.97;;;4.95;60.96
7754;BME280;3921;42.266;23.122;2023-04-05T02:58:19;94861.06;;;4.11;61.41
7754;BME280;3921;42.266;23.122;2023-04-05T03:00:48;95174.47;;;5.82;61.67
7754;BME280;3921;42.266;23.122;2023-04-05T03:03:16;95128.72;;;5.74;61.49
7754;BME280;3921;42.266;23.122;2023-04-05T03:05:44;95222.22;;;6.30;61.58
7754;BME280;3921;42.266;23.122;2023-04-05T03:08:13;95122.03;;;5.72;61.39
7754;BME280;3921;42.266;23.122;2023-04-05T03:10:43;95234.75;;;6.41;62.50
7754;BME280;3921;42.266;23.122;2023-04-05T03:13:12;95086.91;;;5.38;61.89
7754;BME280;3921;42.266;23.122;2023-04-05T03:15:40;95077.81;;;5.40;61.77
7754;BME280;3921;42.266;23.122;2023-04-05T03:18:07;95146.19;;;5.74;62.47
7754;BME280;3921;42.266;23.122;2023-04-05T03:20:35;94929.38;;;4.49;62.32
7754;BME280;3921;42.266;23.122;2023-04-05T03:23:05;94797.56;;;3.52;62.31
7754;BME280;3921;42.266;23.122;2023-04-05T03:25:35;95211.31;;;6.16;62.34
7754;BME280;3921;42.266;23.122;2023-04-05T03:28:04;95117.88;;;5.71;61.21
7754;BME280;3921;42.266;23.122;2023-04-05T03:30:32;95182.97;;;6.06;61.73
7754;BME280;3921;42.266;23.122;2023-04-05T03:33:00;95123.72;;;5.70;61.84
7754;BME280;3921;42.266;23.122;2023-04-05T03:35:27;95173.75;;;5.94;60.87
7754;BME280;3921;42.266;23.122;2023-04-05T03:37:55;94985.25;;;4.87;60.09
7754;BME280;3921;42.266;23.122;2023-04-05T03:40:23;95061.91;;;5.24;61.60
7754;BME280;3921;42.266;23.122;2023-04-05T03:42:50;94664.47;;;2.81;61.30
7754;BME280;3921;42.266;23.122;2023-04-05T03:45:17;95067.53;;;5.02;61.37
7754;BME280;3921;42.266;23.122;2023-04-05T03:47:46;95066.72;;;5.04;60.58
7754;BME280;3921;42.266;23.122;2023-04-05T03:50:13;94907.56;;;4.19;60.41
7754;BME280;3921;42.266;23.122;2023-04-05T03:52:40;95120.25;;;5.52;60.86
7754;BME280;3921;42.266;23.122;2023-04-05T03:55:07;95159.50;;;5.81;60.99
7754;BME280;3921;42.266;23.122;2023-04-05T03:57:36;94976.63;;;4.49;61.06
7754;BME280;3921;42.266;23.122;2023-04-05T04:00:04;95092.72;;;5.36;61.08
7754;BME280;3921;42.266;23.122;2023-04-05T04:02:41;95176.13;;;5.80;62.15
7754;BME280;3921;42.266;23.122;2023-04-05T04:05:10;95262.13;;;6.28;61.13
7754;BME280;3921;42.266;23.122;2023-04-05T04:07:37;95263.84;;;6.34;60.75
7754;BME280;3921;42.266;23.122;2023-04-05T04:10:05;95171.13;;;5.79;60.84
7754;BME280;3921;42.266;23.122;2023-04-05T04:12:32;94945.03;;;4.41;60.48
7754;BME280;3921;42.266;23.122;2023-04-05T04:14:59;95166.84;;;5.63;60.50
7754;BME280;3921;42.266;23.122;2023-04-05T04:17:27;94731.59;;;2.98;60.80
7754;BME280;3921;42.266;23.122;2023-04-05T04:19:55;95172.81;;;5.83;60.45
7754;BME280;3921;42.266;23.122;2023-04-05T04:22:26;95015.88;;;4.81;60.22
7754;BME280;3921;42.266;23.122;2023-04-05T04:24:57;95078.41;;;5.15;60.65
7754;BME280;3921;42.266;23.122;2023-04-05T04:27:27;95085.09;;;5.19;60.69
7754;BME280;3921;42.266;23.122;2023-04-05T04:29:56;95181.09;;;5.77;61.22
7754;BME280;3921;42.266;23.122;2023-04-05T04:32:27;95149.47;;;5.73;60.43
7754;BME280;3921;42.266;23.122;2023-04-05T04:35:12;95193.63;;;5.88;60.78
7754;BME280;3921;42.266;23.122;2023-04-05T04:37:44;95143.66;;;5.73;59.56
7754;BME280;3921;42.266;23.122;2023-04-05T04:40:13;95174.50;;;5.87;59.76
7754;BME280;3921;42.266;23.122;2023-04-05T04:42:48;95094.38;;;5.33;60.32
7754;BME280;3921;42.266;23.122;2023-04-05T04:45:17;95270.50;;;6.36;59.96
7754;BME280;3921;42.266;23.122;2023-04-05T04:47:45;94953.97;;;4.19;60.95
7754;BME280;3921;42.266;23.122;2023-04-05T04:50:14;95180.94;;;5.60;61.55
7754;BME280;3921;42.266;23.122;2023-04-05T04:52:46;95165.94;;;5.51;61.07
7754;BME280;3921;42.266;23.122;2023-04-05T04:55:13;95094.16;;;5.09;61.13
7754;BME280;3921;42.266;23.122;2023-04-05T04:57:40;95192.75;;;5.83;61.35
7754;BME280;3921;42.266;23.122;2023-04-05T05:00:08;95088.28;;;5.04;61.50
7754;BME280;3921;42.266;23.122;2023-04-05T05:02:37;94937.41;;;4.21;62.42
7754;BME280;3921;42.266;23.122;2023-04-05T05:05:05;95004.78;;;4.42;62.18
7754;BME280;3921;42.266;23.122;2023-04-05T05:07:33;95202.78;;;5.86;61.44
7754;BME280;3921;42.266;23.122;2023-04-05T05:10:02;95142.59;;;5.45;61.73
7754;BME280;3921;42.266;23.122;2023-04-05T05:12:29;95121.88;;;5.49;62.01
7754;BME280;3921;42.266;23.122;2023-04-05T05:14:57;94903.38;;;4.17;62.15
7754;BME280;3921;42.266;23.122;2023-04-05T05:17:24;95184.50;;;5.87;62.17
7754;BME280;3921;42.266;23.122;2023-04-05T05:19:51;94896.38;;;3.79;61.99
7754;BME280;3921;42.266;23.122;2023-04-05T05:22:18;95182.78;;;5.80;61.53
7754;BME280;3921;42.266;23.122;2023-04-05T05:24:45;95262.94;;;6.24;62.30
7754;BME280;3921;42.266;23.122;2023-04-05T05:27:14;95040.91;;;4.93;61.97
7754;BME280;3921;42.266;23.122;2023-04-05T05:29:41;95180.22;;;5.72;62.13
7754;BME280;3921;42.266;23.122;2023-04-05T05:32:08;95125.16;;;5.42;62.08
7754;BME280;3921;42.266;23.122;2023-04-05T05:34:39;95180.28;;;5.80;62.41
7754;BME280;3921;42.266;23.122;2023-04-05T05:37:06;95101.75;;;5.27;61.45
7754;BME280;3921;42.266;23.122;2023-04-05T05:39:34;95153.66;;;5.74;61.07
7754;BME280;3921;42.266;23.122;2023-04-05T05:42:01;95173.59;;;5.76;60.14
7754;BME280;3921;42.266;23.122;2023-04-05T05:44:30;95251.34;;;6.34;59.07
7754;BME280;3921;42.266;23.122;2023-04-05T05:46:57;95190.28;;;5.84;58.91
7754;BME280;3921;42.266;23.122;2023-04-05T05:49:24;95257.81;;;6.07;58.67
7754;BME280;3921;42.266;23.122;2023-04-05T05:51:51;94990.78;;;4.57;57.97
7754;BME280;3921;42.266;23.122;2023-04-05T05:54:18;95103.41;;;5.25;59.16
7754;BME280;3921;42.266;23.122;2023-04-05T05:56:45;95076.63;;;4.98;59.14
7754;BME280;3921;42.266;23.122;2023-04-05T05:59:12;95215.31;;;5.95;59.13
7754;BME280;3921;42.266;23.122;2023-04-05T06:01:41;95245.41;;;6.18;58.81
7754;BME280;3921;42.266;23.122;2023-04-05T06:04:10;94980.69;;;4.38;58.47
7754;BME280;3921;42.266;23.122;2023-04-05T06:06:38;95247.78;;;6.01;59.03
7754;BME280;3921;42.266;23.122;2023-04-05T06:09:05;95253.69;;;6.11;58.20
7754;BME280;3921;42.266;23.122;2023-04-05T06:11:32;95201.03;;;5.74;58.29
7754;BME280;3921;42.266;23.122;2023-04-05T06:13:59;95224.38;;;5.90;58.51
7754;BME280;3921;42.266;23.122;2023-04-05T06:16:26;95312.25;;;6.57;58.24
7754;BME280;3921;42.266;23.122;2023-04-05T06:18:55;95231.19;;;6.03;57.64
7754;BME280;3921;42.266;23.122;2023-04-05T06:21:22;95133.50;;;5.50;56.95
7754;BME280;3921;42.266;23.122;2023-04-05T06:23:49;95318.06;;;6.59;57.23
7754;BME280;3921;42.266;23.122;2023-04-05T06:26:17;95328.09;;;6.61;57.40
7754;BME280;3921;42.266;23.122;2023-04-05T06:28:47;95242.00;;;6.05;56.79
7754;BME280;3921;42.266;23.122;2023-04-05T06:31:14;95216.97;;;5.95;56.42
7754;BME280;3921;42.266;23.122;2023-04-05T06:33:42;95273.81;;;6.34;56.95
7754;BME280;3921;42.266;23.122;2023-04-05T06:36:13;94868.25;;;3.82;57.46
7754;BME280;3921;42.266;23.122;2023-04-05T06:38:40;95231.16;;;6.00;57.13
7754;BME280;3921;42.266;23.122;2023-04-05T06:41:07;95170.28;;;5.78;56.60
7754;BME280;3921;42.266;23.122;2023-04-05T06:43:35;94999.16;;;4.63;56.63
7754;BME280;3921;42.266;23.122;2023-04-05T06:46:02;95208.72;;;5.97;56.72
7754;BME280;3921;42.266;23.122;2023-04-05T06:48:38;94943.31;;;4.35;56.76
7754;BME280;3921;42.266;23.122;2023-04-05T06:51:05;95146.78;;;5.50;56.85
7754;BME280;3921;42.266;23.122;2023-04-05T06:53:34;95366.41;;;6.71;57.24
7754;BME280;3921;42.266;23.122;2023-04-05T06:56:04;95120.13;;;5.34;56.26
7754;BME280;3921;42.266;23.122;2023-04-05T06:58:31;95244.59;;;6.15;55.74
7754;BME280;3921;42.266;23.122;2023-04-05T07:00:59;95241.13;;;5.99;55.99
7754;BME280;3921;42.266;23.122;2023-04-05T07:03:26;95346.47;;;6.72;56.44
7754;BME280;3921;42.266;23.122;2023-04-05T07:05:54;95293.81;;;6.38;55.94
7754;BME280;3921;42.266;23.122;2023-04-05T07:08:24;94975.66;;;4.32;55.03
7754;BME280;3921;42.266;23.122;2023-04-05T07:10:53;95264.53;;;6.16;55.85
7754;BME280;3921;42.266;23.122;2023-04-05T07:13:23;94974.00;;;4.33;56.53
7754;BME280;3921;42.266;23.122;2023-04-05T07:15:58;95130.88;;;5.31;56.16
7754;BME280;3921;42.266;23.122;2023-04-05T07:18:25;95211.72;;;5.66;55.73
7754;BME280;3921;42.266;23.122;2023-04-05T07:20:57;95260.38;;;6.17;55.99
7754;BME280;3921;42.266;23.122;2023-04-05T07:23:29;95244.50;;;6.07;56.00
7754;BME280;3921;42.266;23.122;2023-04-05T07:26:02;95302.09;;;6.33;56.29
7754;BME280;3921;42.266;23.122;2023-04-05T07:28:30;95289.53;;;6.24;55.92
7754;BME280;3921;42.266;23.122;2023-04-05T07:31:06;95113.38;;;5.22;55.36
7754;BME280;3921;42.266;23.122;2023-04-05T07:33:33;95165.16;;;5.58;55.48
7754;BME280;3921;42.266;23.122;2023-04-05T07:36:02;94969.13;;;4.46;55.10
7754;BME280;3921;42.266;23.122;2023-04-05T07:38:29;95190.13;;;5.68;55.21
7754;BME280;3921;42.266;23.122;2023-04-05T07:40:56;95129.28;;;5.40;54.59
7754;BME280;3921;42.266;23.122;2023-04-05T07:43:29;95287.00;;;6.18;54.24
7754;BME280;3921;42.266;23.122;2023-04-05T07:46:02;95220.19;;;5.84;54.66
7754;BME280;3921;42.266;23.122;2023-04-05T07:48:31;95283.78;;;6.31;54.44
7754;BME280;3921;42.266;23.122;2023-04-05T07:51:04;95287.91;;;6.27;54.63
7754;BME280;3921;42.266;23.122;2023-04-05T07:53:35;95221.13;;;5.91;54.40
7754;BME280;3921;42.266;23.122;2023-04-05T07:56:05;95285.47;;;6.35;54.81
7754;BME280;3921;42.266;23.122;2023-04-05T07:58:39;95124.31;;;5.40;54.83
7754;BME280;3921;42.266;23.122;2023-04-05T08:01:09;95122.66;;;5.40;54.59
7754;BME280;3921;42.266;23.122;2023-04-05T08:03:38;95242.84;;;6.04;55.26
7754;BME280;3921;42.266;23.122;2023-04-05T08:06:12;94976.47;;;4.34;55.00
7754;BME280;3921;42.266;23.122;2023-04-05T08:08:42;95220.19;;;5.84;55.06
7754;BME280;3921;42.266;23.122;2023-04-05T08:11:12;95400.88;;;7.17;54.92
7754;BME280;3921;42.266;23.122;2023-04-05T08:13:47;95100.19;;;5.37;54.36
7754;BME280;3921;42.266;23.122;2023-04-05T08:16:14;95296.34;;;6.45;54.44
7754;BME280;3921;42.266;23.122;2023-04-05T08:18:41;95182.00;;;5.85;54.76
7754;BME280;3921;42.266;23.122;2023-04-05T08:21:08;95300.59;;;6.55;54.05
7754;BME280;3921;42.266;23.122;2023-04-05T08:23:41;95304.75;;;6.54;54.41
7754;BME280;3921;42.266;23.122;2023-04-05T08:26:08;95293.06;;;6.53;54.93
7754;BME280;3921;42.266;23.122;2023-04-05T08:28:35;95286.47;;;6.60;55.08
7754;BME280;3921;42.266;23.122;2023-04-05T08:31:04;95198.78;;;6.06;54.89
7754;BME280;3921;42.266;23.122;2023-04-05T08:33:31;95337.47;;;6.94;54.04
7754;BME280;3921;42.266;23.122;2023-04-05T08:36:03;95411.88;;;7.45;54.11
7754;BME280;3921;42.266;23.122;2023-04-05T08:38:30;95193.75;;;6.02;54.59
7754;BME280;3921;42.266;23.122;2023-04-05T08:41:06;95022.84;;;5.20;54.30
7754;BME280;3921;42.266;23.122;2023-04-05T08:43:43;95331.72;;;7.12;53.86
7754;BME280;3921;42.266;23.122;2023-04-05T08:46:15;95325.88;;;7.08;53.85
7754;BME280;3921;42.266;23.122;2023-04-05T08:48:44;95105.50;;;5.80;54.19
7754;BME280;3921;42.266;23.122;2023-04-05T08:51:11;95322.47;;;6.94;53.39
7754;BME280;3921;42.266;23.122;2023-04-05T08:53:38;95255.78;;;6.79;53.56
7754;BME280;3921;42.266;23.122;2023-04-05T08:56:06;95418.66;;;7.79;54.41
7754;BME280;3921;42.266;23.122;2023-04-05T08:58:35;95308.34;;;7.05;53.48
7754;BME280;3921;42.266;23.122;2023-04-05T09:01:04;95036.31;;;5.47;54.24
7754;BME280;3921;42.266;23.122;2023-04-05T09:03:36;95257.56;;;7.03;54.33
7754;BME280;3921;42.266;23.122;2023-04-05T09:06:06;95249.19;;;6.93;54.09
7754;BME280;3921;42.266;23.122;2023-04-05T09:08:37;94876.41;;;4.64;54.65
7754;BME280;3921;42.266;23.122;2023-04-05T09:11:04;95208.31;;;6.75;54.67
7754;BME280;3921;42.266;23.122;2023-04-05T09:13:31;95082.38;;;6.05;54.05
7754;BME280;3921;42.266;23.122;2023-04-05T09:16:00;94883.06;;;4.65;53.54
7754;BME280;3921;42.266;23.122;2023-04-05T09:18:27;94912.34;;;5.03;53.94
7754;BME280;3921;42.266;23.122;2023-04-05T09:21:02;95250.09;;;7.06;53.29
7754;BME280;3921;42.266;23.122;2023-04-05T09:23:30;95297.69;;;7.40;53.80
7754;BME280;3921;42.266;23.122;2023-04-05T09:25:59;95288.47;;;7.33;53.55
7754;BME280;3921;42.266;23.122;2023-04-05T09:28:44;95386.25;;;8.09;53.65
7754;BME280;3921;42.266;23.122;2023-04-05T09:31:28;95263.47;;;7.31;54.20
7754;BME280;3921;42.266;23.122;2023-04-05T09:33:57;95364.53;;;8.05;53.93
7754;BME280;3921;42.266;23.122;2023-04-05T09:36:26;95213.47;;;7.14;53.22
7754;BME280;3921;42.266;23.122;2023-04-05T09:39:04;95286.00;;;7.43;52.51
7754;BME280;3921;42.266;23.122;2023-04-05T09:41:32;95388.72;;;8.06;52.95
7754;BME280;3921;42.266;23.122;2023-04-05T09:44:00;94858.25;;;4.80;52.93
7754;BME280;3921;42.266;23.122;2023-04-05T09:46:29;95307.69;;;7.48;53.14
7754;BME280;3921;42.266;23.122;2023-04-05T09:48:58;94862.38;;;4.75;52.99
7754;BME280;3921;42.266;23.122;2023-04-05T09:51:33;94840.88;;;4.84;52.82
7754;BME280;3921;42.266;23.122;2023-04-05T09:54:02;95040.88;;;6.17;52.98
7754;BME280;3921;42.266;23.122;2023-04-05T09:56:31;95052.53;;;6.24;53.11
7754;BME280;3921;42.266;23.122;2023-04-05T09:58:59;95092.56;;;6.51;52.25
7754;BME280;3921;42.266;23.122;2023-04-05T10:01:29;95251.09;;;7.71;52.43
7754;BME280;3921;42.266;23.122;2023-04-05T10:03:57;95377.97;;;8.65;51.36
7754;BME280;3921;42.266;23.122;2023-04-05T10:06:37;95031.00;;;6.43;51.03
7754;BME280;3921;42.266;23.122;2023-04-05T10:09:06;94885.25;;;5.64;51.08
7754;BME280;3921;42.266;23.122;2023-04-05T10:11:45;94872.66;;;5.38;50.42
7754;BME280;3921;42.266;23.122;2023-04-05T10:14:13;95117.69;;;7.02;50.31
7754;BME280;3921;42.266;23.122;2023-04-05T10:16:46;95372.13;;;8.65;50.79
7754;BME280;3921;42.266;23.122;2023-04-05T10:19:24;95305.31;;;8.18;50.57
7754;BME280;3921;42.266;23.122;2023-04-05T10:21:54;94996.78;;;6.08;51.20
7754;BME280;3921;42.266;23.122;2023-04-05T10:24:33;94932.63;;;5.75;50.62
7754;BME280;3921;42.266;23.122;2023-04-05T10:27:04;95199.38;;;7.55;50.24
7754;BME280;3921;42.266;23.122;2023-04-05T10:29:37;94975.16;;;6.13;49.66
7754;BME280;3921;42.266;23.122;2023-04-05T10:32:14;95004.34;;;6.31;49.17
7754;BME280;3921;42.266;23.122;2023-04-05T10:34:56;94801.00;;;4.73;48.63
7754;BME280;3921;42.266;23.122;2023-04-05T10:37:35;95372.97;;;8.55;49.25
7754;BME280;3921;42.266;23.122;2023-04-05T10:40:07;95232.75;;;7.70;49.68
7754;BME280;3921;42.266;23.122;2023-04-05T10:42:40;95064.34;;;6.66;50.44
7754;BME280;3921;42.266;23.122;2023-04-05T10:45:11;95281.09;;;7.85;50.74
7754;BME280;3921;42.266;23.122;2023-04-05T10:47:44;95010.16;;;6.28;50.82
7754;BME280;3921;42.266;23.122;2023-04-05T10:50:20;95281.09;;;7.85;50.35
7754;BME280;3921;42.266;23.122;2023-04-05T10:52:50;95143.47;;;7.05;50.33
7754;BME280;3921;42.266;23.122;2023-04-05T10:55:18;95382.13;;;8.59;49.52
7754;BME280;3921;42.266;23.122;2023-04-05T10:57:46;95188.53;;;7.30;49.44
7754;BME280;3921;42.266;23.122;2023-04-05T11:00:15;95268.59;;;7.85;49.23
7754;BME280;3921;42.266;23.122;2023-04-05T11:02:43;95431.38;;;8.64;49.54
7754;BME280;3921;42.266;23.122;2023-04-05T11:05:30;95303.66;;;8.11;49.82
7754;BME280;3921;42.266;23.122;2023-04-05T11:08:03;95313.66;;;8.08;50.29
7754;BME280;3921;42.266;23.122;2023-04-05T11:10:33;95228.56;;;7.66;49.47
7754;BME280;3921;42.266;23.122;2023-04-05T11:13:08;95280.28;;;7.96;49.92
7754;BME280;3921;42.266;23.122;2023-04-05T11:15:36;95387.16;;;8.74;49.79
7754;BME280;3921;42.266;23.122;2023-04-05T11:18:08;95387.97;;;8.85;49.30
7754;BME280;3921;42.266;23.122;2023-04-05T11:20:39;95334.56;;;8.60;47.79
7754;BME280;3921;42.266;23.122;2023-04-05T11:23:08;95345.41;;;8.67;48.44
7754;BME280;3921;42.266;23.122;2023-04-05T11:25:39;95257.78;;;8.15;47.54
7754;BME280;3921;42.266;23.122;2023-04-05T11:28:06;95202.72;;;7.80;47.59
7754;BME280;3921;42.266;23.122;2023-04-05T11:30:47;95269.44;;;8.07;47.38
7754;BME280;3921;42.266;23.122;2023-04-05T11:33:40;95404.69;;;8.85;47.27
7754;BME280;3921;42.266;23.122;2023-04-05T11:36:35;95400.50;;;8.76;47.02
7754;BME280;3921;42.266;23.122;2023-04-05T11:39:28;95388.81;;;8.75;47.84
7754;BME280;3921;42.266;23.122;2023-04-05T11:41:59;95295.31;;;8.15;48.32
7754;BME280;3921;42.266;23.122;2023-04-05T11:44:27;95286.97;;;7.97;48.35
7754;BME280;3921;42.266;23.122;2023-04-05T11:46:57;95122.66;;;7.09;48.22
7754;BME280;3921;42.266;23.122;2023-04-05T11:49:24;95300.31;;;8.22;47.72
7754;BME280;3921;42.266;23.122;2023-04-05T11:51:52;95358.78;;;8.50;47.62
7754;BME280;3921;42.266;23.122;2023-04-05T11:54:35;95317.00;;;8.34;48.43
7754;BME280;3921;42.266;23.122;2023-04-05T11:57:04;95307.84;;;8.33;48.46
7754;BME280;3921;42.266;23.122;2023-04-05T11:59:32;95382.97;;;8.84;48.61
7754;BME280;3921;42.266;23.122;2023-04-05T12:02:01;94991.06;;;6.44;48.40
7754;BME280;3921;42.266;23.122;2023-04-05T12:04:28;95128.53;;;7.21;48.56
7754;BME280;3921;42.266;23.122;2023-04-05T12:07:12;95218.56;;;7.79;48.80
7754;BME280;3921;42.266;23.122;2023-04-05T12:10:01;95380.47;;;8.91;48.82
7754;BME280;3921;42.266;23.122;2023-04-05T12:12:33;95247.75;;;8.12;49.57
7754;BME280;3921;42.266;23.122;2023-04-05T12:15:01;95290.31;;;8.33;48.53
7754;BME280;3921;42.266;23.122;2023-04-05T12:17:44;95334.56;;;8.66;48.21
7754;BME280;3921;42.266;23.122;2023-04-05T12:20:12;95216.09;;;7.88;48.40
7754;BME280;3921;42.266;23.122;2023-04-05T12:22:41;95380.47;;;8.90;48.52
7754;BME280;3921;42.266;23.122;2023-04-05T12:25:10;95281.13;;;8.24;48.21
7754;BME280;3921;42.266;23.122;2023-04-05T12:27:37;95300.31;;;8.35;47.83
7754;BME280;3921;42.266;23.122;2023-04-05T12:30:07;95373.78;;;9.01;48.43
7754;BME280;3921;42.266;23.122;2023-04-05T12:32:45;95256.91;;;8.31;48.60
7754;BME280;3921;42.266;23.122;2023-04-05T12:35:14;95302.03;;;8.60;47.51
7754;BME280;3921;42.266;23.122;2023-04-05T12:37:42;95284.50;;;8.45;47.02
7754;BME280;3921;42.266;23.122;2023-04-05T12:40:11;95226.09;;;8.00;47.65
7754;BME280;3921;42.266;23.122;2023-04-05T12:42:41;94866.25;;;5.98;48.23
7754;BME280;3921;42.266;23.122;2023-04-05T12:45:14;95033.56;;;6.96;47.81
7754;BME280;3921;42.266;23.122;2023-04-05T12:47:49;95228.59;;;8.15;47.85
7754;BME280;3921;42.266;23.122;2023-04-05T12:50:25;95239.41;;;8.25;48.44
7754;BME280;3921;42.266;23.122;2023-04-05T12:52:54;95285.31;;;8.61;48.42
7754;BME280;3921;42.266;23.122;2023-04-05T12:55:28;95297.81;;;8.70;47.67
7754;BME280;3921;42.266;23.122;2023-04-05T12:57:57;95131.88;;;7.65;47.69
7754;BME280;3921;42.266;23.122;2023-04-05T13:00:26;95295.31;;;8.62;46.87
7754;BME280;3921;42.266;23.122;2023-04-05T13:02:55;95267.81;;;8.41;46.46
7754;BME280;3921;42.266;23.122;2023-04-05T13:05:27;95136.06;;;7.69;47.17
7754;BME280;3921;42.266;23.122;2023-04-05T13:07:54;95218.56;;;8.00;47.23
7754;BME280;3921;42.266;23.122;2023-04-05T13:10:24;95306.19;;;8.55;46.81
7754;BME280;3921;42.266;23.122;2023-04-05T13:12:52;95246.09;;;8.37;46.73
7754;BME280;3921;42.266;23.122;2023-04-05T13:15:19;95174.38;;;7.78;47.30
7754;BME280;3921;42.266;23.122;2023-04-05T13:17:49;95130.19;;;7.51;48.12
7754;BME280;3921;42.266;23.122;2023-04-05T13:20:20;95307.00;;;8.65;48.03
7754;BME280;3921;42.266;23.122;2023-04-05T13:22:47;95250.28;;;8.15;46.87
7754;BME280;3921;42.266;23.122;2023-04-05T13:25:16;95360.41;;;8.76;46.83
7754;BME280;3921;42.266;23.122;2023-04-05T13:27:44;95161.06;;;7.57;46.74
7754;BME280;3921;42.266;23.122;2023-04-05T13:30:11;95240.25;;;8.06;46.26
7754;BME280;3921;42.266;23.122;2023-04-05T13:32:38;95341.22;;;8.66;46.36
7754;BME280;3921;42.266;23.122;2023-04-05T13:35:09;95275.28;;;8.25;46.85
7754;BME280;3921;42.266;23.122;2023-04-05T13:37:36;95266.94;;;8.25;47.67